Station: Townsville - Fanning River (Defence)

  Atmospheric Gas Attenuation - ITU Rec 676-11   --------------- db/100km ---------------
Date Time Temp RH % AH g/m3 Dew Point Wind Direction Speed kph Gust kph Barometer mB Rainfall Since 9am 24GHz 47GHz 76GHz 122GHz 134GHz 241GHz
27 02:20 22.1 100 19.52 22.1 7 9 1013.1 0.2 42.4 42.5 82.8 219.1 242.2 840.7
27 02:10 22.1 100 19.52 22.1 7 9 1013.1 0.2 42.4 42.5 82.8 219.1 242.2 840.7
27 02:00 22.2 100 19.63 22.2 6 11 1005.4 0.2 42.7 42.3 82.7 219.0 242.4 841.4
27 01:50 22.2 100 19.63 22.2 7 9 1013.1 0.2 42.6 42.7 83.2 220.2 243.6 845.8
27 01:40 22.2 100 19.63 22.2 4 7 1013.1 0.2 42.6 42.7 83.2 220.2 243.6 845.8
27 01:30 22.2 100 19.63 22.2 7 13 1005.8 0.2 42.7 42.3 82.8 219.0 242.4 841.7
27 01:20 22.2 100 19.63 22.2 9 13 1013.1 0.2 42.6 42.7 83.2 220.2 243.6 845.8
27 01:10 22.3 100 19.74 22.3 7 13 1013.1 0.2 42.8 42.8 83.7 221.4 245.1 850.9
27 01:00 22.3 100 19.74 22.3 7 17 1006.1 0.2 42.9 42.5 83.2 220.2 243.9 846.9
27 00:50 22.3 100 19.74 22.3 9 13 1013.1 0.2 42.8 42.8 83.7 221.4 245.1 850.9
27 00:40 22.3 100 19.74 22.3 7 9 1013.1 0.2 42.8 42.8 83.7 221.4 245.1 850.9
27 00:30 22.4 100 19.86 22.4 7 9 1006.3 0.2 43.1 42.7 83.7 221.6 245.6 852.7
27 00:20 22.4 100 19.86 22.4 7 9 1013.1 0.2 43.1 43.0 84.2 222.7 246.7 856.6
27 00:10 22.4 100 19.86 22.4 7 7 1013.1 0 43.1 43.0 84.2 222.7 246.7 856.6
27 00:00 22.5 100 19.97 22.5 2 6 1007 0 43.4 42.9 84.2 222.9 247.2 858.2
26 23:50 22.5 100 19.97 22.5 0 0 1013.1 0 43.3 43.2 84.6 223.9 248.2 861.7
26 23:40 22.4 100 19.86 22.4 4 6 1013.1 0 43.1 43.0 84.2 222.7 246.7 856.6
26 23:30 22.4 100 19.86 22.4 4 9 1007.5 0 43.1 42.8 83.8 221.8 245.8 853.4
26 23:20 22.4 100 19.86 22.4 4 6 1013.1 0 43.1 43.0 84.2 222.7 246.7 856.6
26 23:10 22.3 100 19.74 22.3 7 9 1013.1 0 42.8 42.8 83.7 221.4 245.1 850.9
26 23:00 22.4 100 19.86 22.4 7 11 1007.5 0 43.1 42.8 83.8 221.8 245.8 853.4
26 22:50 22.4 100 19.86 22.4 6 9 1013.1 0 43.1 43.0 84.2 222.7 246.7 856.6
26 22:40 22.4 100 19.86 22.4 7 9 1013.1 0 43.1 43.0 84.2 222.7 246.7 856.6
26 22:30 22.6 98 19.69 22.3 7 15 1007.6 0 42.7 42.3 82.7 218.9 242.4 841.6
26 22:20 22.9 93 19 21.7 9 13 1013.1 0 41.2 41.1 79.4 209.9 231.2 802.7
26 22:10 23.5 88 18.61 21.4 11 17 1013.1 0 40.3 40.0 76.9 203.3 223.2 775.0
26 22:00 23.6 88 18.72 21.5 11 20 1007.4 0 40.5 39.9 76.9 203.5 223.7 777.0
26 21:50 23.6 88 18.72 21.6 9 13 1013.1 0 40.5 40.2 77.3 204.4 224.6 780.0
26 21:40 23.7 88 18.82 21.7 13 19 1013.1 0 40.7 40.3 77.7 205.4 225.9 784.4
26 21:30 23.7 89 19.04 21.8 9 17 1007.3 0 41.2 40.5 78.3 207.3 228.4 793.3
26 21:20 23.7 91 19.46 22.1 7 9 1013.1 0 42.1 41.6 80.8 213.7 236.0 819.6
26 21:10 23.7 91 19.46 22.1 9 11 1013.1 0 42.1 41.6 80.8 213.7 236.0 819.6
26 21:00 23.7 91 19.46 22.1 6 13 1007.1 0 42.1 41.3 80.4 212.7 235.0 816.2
26 20:50 23.7 92 19.68 22.3 4 6 1013.1 0 42.6 42.0 81.8 216.5 239.5 831.8
26 20:40 23.7 92 19.68 22.3 6 7 1013.1 0 42.6 42.0 81.8 216.5 239.5 831.8
26 20:30 23.8 91 19.57 22.2 7 11 1006.7 0 42.3 41.4 80.8 213.8 236.4 821.0
26 20:20 23.9 91 19.69 22.3 6 7 1013.1 0 42.6 41.9 81.7 216.1 239.0 830.1
26 20:10 23.9 91 19.69 22.3 6 11 1013.1 0 42.6 41.9 81.7 216.1 239.0 830.1
26 20:00 23.9 91 19.69 22.3 7 17 1006.4 0 42.6 41.6 81.2 215.0 237.9 826.4
26 19:50 23.9 91 19.69 22.3 2 7 1013.1 0 42.6 41.9 81.7 216.1 239.0 830.1
26 19:40 23.9 91 19.69 22.3 4 4 1013.1 0 42.6 41.9 81.7 216.1 239.0 830.1
26 19:30 23.9 90 19.47 22.2 6 11 1006.1 0 42.1 41.2 80.1 212.1 234.4 814.1
26 19:20 23.9 88 19.04 21.9 4 6 1013.1 0 41.2 40.6 78.5 207.7 228.7 794.3
26 19:10 24 88 19.14 22 6 7 1013.1 0 41.4 40.8 78.9 208.7 230.0 798.7
26 19:00 24.1 88 19.25 22 7 15 1005.8 0 41.6 40.6 78.8 208.6 230.3 799.7
26 18:50 24.2 86 18.92 21.7 7 9 1013.1 0 40.9 40.3 77.6 205.3 225.9 784.6
26 18:40 24.4 85 18.92 21.7 7 11 1013.1 0 40.9 40.2 77.4 204.8 225.3 782.6
26 18:30 24.5 85 19.02 21.8 9 17 1005.6 0 41.1 40.0 77.3 204.6 225.4 782.9
26 18:20 24.7 84 19.01 21.8 11 13 1013.1 0 41.0 40.2 77.5 205.1 225.8 784.3
26 18:10 24.8 84 19.12 21.9 15 19 1013.1 0 41.2 40.4 78.0 206.2 227.2 789.2
26 18:00 24.9 83 19 21.8 13 24 1005.4 0 41.0 39.7 76.8 203.2 223.9 777.6
26 17:50 25 82 18.88 21.7 19 22 1013.1 0 40.7 39.8 76.6 202.7 222.9 774.2
26 17:40 25.1 82 18.98 21.8 11 19 1013.1 0 40.9 39.9 77.0 203.7 224.1 778.5
26 17:30 25.2 81 18.86 21.7 13 20 1005 0 40.7 39.3 75.8 200.6 220.8 766.8
26 17:20 25.4 81 19.07 21.9 17 20 1013.1 0 41.1 40.0 77.1 204.0 224.6 780.3
26 17:10 25.4 81 19.07 21.9 19 24 1013.1 0 41.1 40.0 77.1 204.0 224.6 780.3
26 17:00 25.5 84 19.89 22.6 13 19 1004.6 0 42.9 41.1 80.3 212.7 235.7 818.8
26 16:50 25.4 83 19.54 22.3 13 17 1013.1 0 42.1 40.9 79.3 209.9 231.9 805.6
26 16:40 25.7 83 19.87 22.6 13 15 1013.1 0 42.7 41.4 80.6 213.3 236.1 820.2
26 16:30 25.7 83 19.87 22.6 11 19 1004.5 0 42.8 41.0 80.0 211.9 234.7 815.5
26 16:20 25.8 80 19.26 22.2 9 13 1013.1 0 41.4 40.1 77.6 205.3 226.3 786.3
26 16:10 26.2 79 19.45 22.4 9 13 1013.1 0 41.8 40.3 78.1 206.6 228.0 792.3
26 16:00 26.3 81 20.05 22.8 11 20 1004.3 0 43.1 41.0 80.2 212.4 235.6 818.6
26 15:50 26.1 79 19.34 22.3 15 20 1013.1 0 41.6 40.2 77.7 205.5 226.7 787.4
26 15:40 26.3 80 19.8 22.7 11 17 1013.1 0 42.5 40.9 79.6 210.7 233.1 810.0
26 15:30 26.3 80 19.8 22.6 9 17 1004.2 0 42.6 40.5 79.0 209.3 231.7 805.1
26 15:20 26.1 80 19.59 22.5 11 15 1013.1 0 42.1 40.6 78.8 208.6 230.5 800.8
26 15:10 25.7 82 19.63 22.4 13 17 1013.1 0 42.2 40.9 79.4 210.2 232.4 807.2
26 15:00 25.4 84 19.78 22.5 11 20 1004.3 0 42.6 40.9 79.9 211.5 234.2 813.7
26 14:50 25.5 85 20.12 22.9 11 17 1013.1 0 43.3 41.9 82.0 217.0 240.7 836.1
26 14:40 24.6 90 20.26 22.8 7 11 1013.1 0 43.7 42.7 83.7 221.5 245.9 853.9
26 14:30 23.9 94 20.33 22.9 13 22 1004.9 0 44.0 42.8 84.3 223.1 248.0 861.2
26 14:20 23.6 88 18.72 21.6 15 19 1013.1 0 40.5 40.2 77.3 204.4 224.6 780.0
26 14:10 25.5 75 17.76 20.9 20 26 1013.1 0 38.3 37.5 70.9 187.6 204.5 710.4
26 14:00 27.8 73 19.64 22.5 7 13 1004.8 0 42.1 39.5 76.8 203.3 224.8 781.2
26 13:50 27.1 73 18.89 21.8 11 13 1013.1 0 40.5 38.8 74.6 197.3 216.9 753.6
26 13:40 27.2 72 18.74 21.7 11 15 1013.1 0 40.2 38.5 73.8 195.2 214.4 744.8
26 13:30 27.3 73 19.1 22 11 19 1005 0 41.0 38.8 74.8 198.1 218.2 758.3
26 13:20 27.2 73 19 21.9 13 17 1013.1 0 40.7 39.0 75.0 198.3 218.2 758.3
26 13:10 26.9 72 18.43 21.6 7 11 1013.1 0 39.6 38.1 72.7 192.2 210.6 731.7
26 13:00 27 73 18.79 21.7 13 20 1005.4 0 40.4 38.4 73.7 195.1 214.5 745.4
26 12:50 27 73 18.79 21.7 9 13 1013.1 0 40.3 38.7 74.2 196.3 215.7 749.4
26 12:40 27.2 72 18.74 21.7 13 28 1013.1 0 40.2 38.5 73.8 195.2 214.4 744.8
26 12:30 27.7 72 19.26 22.2 9 20 1005.8 0 41.3 38.9 75.2 199.1 219.6 763.0
26 12:20 27.2 72 18.74 21.7 17 20 1013.1 0 40.2 38.5 73.8 195.2 214.4 744.8
26 12:10 26.9 72 18.43 21.4 17 20 1013.1 0 39.6 38.1 72.7 192.2 210.6 731.7
26 12:00 27 72 18.53 21.5 11 24 1006.1 0 39.8 37.9 72.6 192.1 210.8 732.4
26 11:50 26.6 72 18.12 21.3 11 15 1013.1 0 38.9 37.7 71.5 189.2 206.9 718.6
26 11:40 26.6 75 18.88 21.8 7 11 1013.1 0 40.5 39.1 75.0 198.4 218.2 758.0
26 11:30 26.4 75 18.67 21.6 13 20 1006.4 0 40.2 38.5 73.8 195.4 214.6 745.6
26 11:20 26.1 75 18.36 21.3 11 15 1013.1 0 39.5 38.3 73.1 193.4 211.8 735.8
26 11:10 26 76 18.5 21.6 9 11 1013.1 0 39.8 38.6 73.9 195.3 214.2 744.1
26 11:00 25.7 78 18.67 21.6 9 19 1006.5 0 40.2 38.8 74.5 197.2 216.6 752.5
26 10:50 25.6 77 18.33 21.4 9 15 1013.1 0 39.5 38.5 73.5 194.3 212.8 739.1
26 10:40 25.6 76 18.09 21.2 13 19 1013.1 0 39.0 38.1 72.4 191.3 209.2 726.6
26 10:30 25.8 76 18.3 21.2 9 17 1006.7 0 39.4 38.1 72.7 192.4 210.8 732.3
26 10:20 26 76 18.5 21.4 11 15 1013.1 0 39.8 38.6 73.9 195.3 214.2 744.1
26 10:10 25.8 77 18.54 21.6 9 13 1013.1 0 39.9 38.8 74.2 196.3 215.4 748.1
26 10:00 25.6 77 18.33 21.3 9 15 1007 0 39.5 38.2 73.1 193.3 211.9 736.0
26 09:50 25.5 77 18.23 21.3 15 17 1013.1 0 39.3 38.4 73.1 193.3 211.6 734.8

Last Refresh: 27-Feb-2021 03:02:10

Most of the information presented on this site is sourced from the Bureau of Meteorology.  Copyright in all material sourced from the Bureau of Meteorology resides with the Commonwealth of Australia.